Terminal Aerodrome Forecast
Issued by NWS

Current Version | Previous Version | Graphics & Text | Print | Product List | Glossary On
Versions: 1 2 3 4 5 6 7 8 9 10 11 12 13 14 15 16 17 18 19 20 21 22
000
FTUS41 KPBZ 300500
TAFHLG
TAF
KHLG 300520Z 3006/3106 VRB04KT P6SM SKC
     FM301000 VRB03KT P6SM BKN060
     FM301700 25012KT P6SM VCSH BKN035
     FM310000 23005KT P6SM BKN050=

USA.gov is the U.S. government's official web portal to all federal, state and local government web resources and services.